createdAt,value
2018-12-31T00:02:31.137Z,16.07
2018-12-31T00:05:03.618Z,14.77
2018-12-31T00:07:34.439Z,20.57
2018-12-31T00:10:23.951Z,17.97
2018-12-31T00:12:55.154Z,21.40
2018-12-31T00:15:25.757Z,13.93
2018-12-31T00:17:56.557Z,16.97
2018-12-31T00:20:27.365Z,15.97
2018-12-31T00:22:57.805Z,16.60
2018-12-31T00:25:28.286Z,13.73
2018-12-31T00:27:59.022Z,13.33
2018-12-31T00:30:29.465Z,13.10
2018-12-31T00:33:00.293Z,14.73
2018-12-31T00:35:30.739Z,16.57
2018-12-31T00:38:01.978Z,12.07
2018-12-31T00:40:32.426Z,17.03
2018-12-31T00:43:22.691Z,12.53
2018-12-31T00:45:53.455Z,11.97
2018-12-31T00:48:23.896Z,12.63
2018-12-31T00:50:54.371Z,12.13
2018-12-31T00:53:25.140Z,14.97
2018-12-31T00:56:15.421Z,13.93
2018-12-31T00:58:45.873Z,16.37
2018-12-31T01:01:16.307Z,14.03
2018-12-31T01:04:07.842Z,12.33
2018-12-31T01:06:38.293Z,11.17
2018-12-31T01:09:08.819Z,14.10
2018-12-31T01:11:39.266Z,11.70
2018-12-31T01:14:09.711Z,11.97
2018-12-31T01:16:40.181Z,11.50
2018-12-31T01:19:10.997Z,12.10
2018-12-31T01:21:41.504Z,10.73
2018-12-31T01:24:11.943Z,12.30
2018-12-31T01:27:01.891Z,15.77
2018-12-31T01:29:32.338Z,10.83
2018-12-31T01:32:04.499Z,14.07
2018-12-31T01:34:35.642Z,14.70
2018-12-31T01:37:06.093Z,12.90
2018-12-31T01:39:38.303Z,14.43
2018-12-31T01:42:09.222Z,16.10
2018-12-31T01:44:40.095Z,17.73
2018-12-31T01:47:10.566Z,16.47
2018-12-31T01:49:41.014Z,15.47
2018-12-31T01:52:11.878Z,14.13
2018-12-31T01:54:42.351Z,16.33
2018-12-31T01:57:13.130Z,17.40
2018-12-31T01:59:45.713Z,16.70
2018-12-31T02:05:31.854Z,16.67
2018-12-31T02:08:02.312Z,17.63
2018-12-31T02:10:32.761Z,18.90
2018-12-31T02:13:03.906Z,16.80
2018-12-31T02:15:34.355Z,17.50
2018-12-31T02:18:04.861Z,17.17
2018-12-31T02:20:35.706Z,20.50
2018-12-31T02:23:06.547Z,19.77
2018-12-31T02:25:37.016Z,18.53
2018-12-31T02:28:07.459Z,21.30
2018-12-31T02:30:37.943Z,17.97
2018-12-31T02:33:08.787Z,19.13
2018-12-31T02:35:39.228Z,17.37
2018-12-31T02:38:11.850Z,19.80
2018-12-31T02:40:42.615Z,23.83
2018-12-31T02:43:14.817Z,23.07
2018-12-31T02:45:45.267Z,28.30
2018-12-31T02:48:15.731Z,27.03
2018-12-31T02:50:46.521Z,24.97
2018-12-31T02:53:17.369Z,31.47
2018-12-31T02:55:48.275Z,29.33
2018-12-31T03:01:08.439Z,28.33
2018-12-31T03:03:39.251Z,26.93
2018-12-31T03:06:10.052Z,28.33
2018-12-31T03:09:18.846Z,25.53
2018-12-31T03:11:49.693Z,27.97
2018-12-31T03:14:20.536Z,29.43
2018-12-31T03:16:50.980Z,31.37
2018-12-31T03:19:21.458Z,32.53
2018-12-31T03:21:51.904Z,28.00
2018-12-31T03:24:42.211Z,30.03
2018-12-31T03:27:12.662Z,27.70
2018-12-31T03:32:59.288Z,29.00
2018-12-31T03:35:49.175Z,34.43
2018-12-31T03:38:19.663Z,30.17
2018-12-31T03:40:50.271Z,36.03
2018-12-31T03:43:20.725Z,31.80
2018-12-31T03:45:51.201Z,30.10
2018-12-31T03:48:21.643Z,32.53
2018-12-31T03:50:52.453Z,32.50
2018-12-31T03:53:42.400Z,34.20
2018-12-31T03:56:12.892Z,35.80
2018-12-31T03:58:43.692Z,31.83
2018-12-31T04:01:14.491Z,32.33
2018-12-31T04:03:45.143Z,29.67
2018-12-31T04:06:15.958Z,29.33
2018-12-31T04:08:46.883Z,27.77
2018-12-31T04:11:17.330Z,29.37
2018-12-31T04:13:47.776Z,28.67
2018-12-31T04:16:37.731Z,30.57
2018-12-31T04:19:08.235Z,22.87
2018-12-31T04:21:38.679Z,29.00
2018-12-31T04:24:09.134Z,27.37
2018-12-31T04:26:39.607Z,26.63
2018-12-31T04:29:10.054Z,26.00
2018-12-31T04:31:42.572Z,22.20
2018-12-31T04:34:32.854Z,28.30
2018-12-31T04:37:03.310Z,25.20
2018-12-31T04:39:35.520Z,23.57
2018-12-31T04:42:07.697Z,20.73
2018-12-31T04:44:38.170Z,23.13
2018-12-31T04:47:09.025Z,23.67
2018-12-31T04:49:39.463Z,19.30
2018-12-31T04:52:09.955Z,18.07
2018-12-31T04:54:40.399Z,21.00
2018-12-31T04:57:10.902Z,23.60
2018-12-31T04:59:41.375Z,21.17
2018-12-31T05:02:11.827Z,20.97
2018-12-31T05:04:42.475Z,22.67
2018-12-31T05:07:12.920Z,23.20
2018-12-31T05:09:43.684Z,24.07
2018-12-31T05:12:14.159Z,20.83
2018-12-31T05:14:44.608Z,20.87
2018-12-31T05:17:15.116Z,22.37
2018-12-31T05:19:45.562Z,18.70
2018-12-31T05:22:16.019Z,24.00
2018-12-31T05:25:06.077Z,20.10
2018-12-31T05:27:56.698Z,20.30
2018-12-31T05:30:27.206Z,16.77
2018-12-31T05:32:59.375Z,16.07
2018-12-31T05:35:29.847Z,15.90
2018-12-31T05:38:02.373Z,15.80
2018-12-31T05:40:32.819Z,18.73
2018-12-31T05:43:03.733Z,15.93
2018-12-31T05:45:34.927Z,15.77
2018-12-31T05:48:05.769Z,14.50
2018-12-31T05:50:36.245Z,16.83
2018-12-31T05:53:06.763Z,19.37
2018-12-31T05:55:37.605Z,19.37
2018-12-31T05:58:08.054Z,18.30
2018-12-31T06:00:42.093Z,15.83
2018-12-31T06:03:32.251Z,16.37
2018-12-31T06:06:02.770Z,15.27
2018-12-31T06:08:33.264Z,14.63
2018-12-31T06:11:04.084Z,16.37
2018-12-31T06:13:34.536Z,17.00
2018-12-31T06:16:05.012Z,16.73
2018-12-31T06:18:35.791Z,16.53
2018-12-31T06:21:06.444Z,16.60
2018-12-31T06:23:36.922Z,16.87
2018-12-31T06:26:07.335Z,15.80
2018-12-31T06:28:37.807Z,15.80
2018-12-31T06:31:10.330Z,17.47
2018-12-31T06:33:42.556Z,14.73
2018-12-31T06:36:32.850Z,13.13
2018-12-31T06:39:03.534Z,16.60
2018-12-31T06:41:33.977Z,16.13
2018-12-31T06:44:23.935Z,15.53
2018-12-31T06:47:13.863Z,15.53
2018-12-31T06:49:44.704Z,16.23
2018-12-31T06:52:15.164Z,16.97
2018-12-31T06:54:46.298Z,100.47
2018-12-31T06:57:16.795Z,16.67
2018-12-31T06:59:47.246Z,18.90
2018-12-31T07:02:18.112Z,15.53
2018-12-31T07:04:48.550Z,15.17
2018-12-31T07:07:37.934Z,22.13
2018-12-31T07:10:08.675Z,111.47
2018-12-31T07:12:39.124Z,84.83
2018-12-31T07:15:09.674Z,46.83
2018-12-31T07:17:40.119Z,18.77
2018-12-31T07:20:10.613Z,15.13
2018-12-31T07:22:41.057Z,9.60
2018-12-31T07:25:11.492Z,7.40
2018-12-31T07:27:42.329Z,10.33
2018-12-31T07:30:12.771Z,10.10
2018-12-31T07:33:02.704Z,8.13
2018-12-31T07:35:33.153Z,6.33
2018-12-31T07:38:03.678Z,5.93
2018-12-31T07:40:34.116Z,7.17
2018-12-31T07:43:04.557Z,6.00
2018-12-31T07:45:35.036Z,7.13
2018-12-31T07:48:05.471Z,5.93
2018-12-31T07:50:55.417Z,5.70
2018-12-31T07:53:26.156Z,5.27
2018-12-31T07:55:56.963Z,6.63
2018-12-31T07:58:27.452Z,5.87
2018-12-31T08:00:57.885Z,5.80
2018-12-31T08:03:28.321Z,6.70
2018-12-31T08:06:00.653Z,5.87
2018-12-31T08:08:32.800Z,6.77
2018-12-31T08:11:03.633Z,7.13
2018-12-31T08:13:34.116Z,6.30
2018-12-31T08:16:04.552Z,5.87
2018-12-31T08:18:35.338Z,5.37
2018-12-31T08:21:05.816Z,6.40
2018-12-31T08:23:36.251Z,6.00
2018-12-31T08:26:06.689Z,7.00
2018-12-31T08:28:37.633Z,8.20
2018-12-31T08:31:09.804Z,9.70
2018-12-31T08:33:40.242Z,15.93
2018-12-31T08:36:11.045Z,31.43
2018-12-31T08:38:41.484Z,4.07
2018-12-31T08:41:11.922Z,21.20
2018-12-31T08:43:42.805Z,22.63
2018-12-31T08:46:13.241Z,25.93
2018-12-31T08:48:43.679Z,28.60
2018-12-31T08:51:14.505Z,32.03
2018-12-31T08:53:45.759Z,13.37
2018-12-31T08:56:16.195Z,19.43
2018-12-31T08:58:47.075Z,37.73
2018-12-31T09:01:17.590Z,13.10
2018-12-31T09:03:48.321Z,19.97
2018-12-31T09:06:18.808Z,8.10
2018-12-31T09:08:49.277Z,14.23
2018-12-31T09:11:19.717Z,7.73
2018-12-31T09:13:50.493Z,8.60
2018-12-31T09:16:21.088Z,6.20
2018-12-31T09:18:51.524Z,5.27
2018-12-31T09:21:22.322Z,10.10
2018-12-31T09:23:54.802Z,11.60
2018-12-31T09:26:25.627Z,6.87
2018-12-31T09:28:56.113Z,40.67
2018-12-31T09:31:26.570Z,12.33
2018-12-31T09:33:57.002Z,11.67
2018-12-31T09:36:47.254Z,14.17
2018-12-31T09:39:19.413Z,9.90
2018-12-31T09:41:49.845Z,8.47
2018-12-31T09:44:20.340Z,5.90
2018-12-31T09:46:50.783Z,7.13
2018-12-31T09:49:21.621Z,7.73
2018-12-31T09:51:52.450Z,8.83
2018-12-31T09:54:22.902Z,10.87
2018-12-31T09:56:53.343Z,10.30
2018-12-31T09:59:25.540Z,8.50
2018-12-31T10:01:57.692Z,6.50
2018-12-31T10:04:30.233Z,7.97
2018-12-31T10:09:55.835Z,9.50
2018-12-31T10:12:45.789Z,8.37
2018-12-31T10:15:35.697Z,7.63
2018-12-31T10:18:06.190Z,7.03
2018-12-31T10:20:36.621Z,9.80
2018-12-31T10:23:07.050Z,8.47
2018-12-31T10:25:56.997Z,10.97
2018-12-31T10:28:27.735Z,11.70
2018-12-31T10:31:00.276Z,7.90
2018-12-31T10:33:30.760Z,9.07
2018-12-31T10:36:01.546Z,13.20
2018-12-31T10:38:31.985Z,9.17
2018-12-31T10:41:02.482Z,10.47
2018-12-31T10:43:33.245Z,10.60
2018-12-31T10:46:03.692Z,10.10
2018-12-31T10:48:34.599Z,9.00
2018-12-31T10:51:05.038Z,8.80
2018-12-31T10:53:35.785Z,15.77
2018-12-31T10:56:06.583Z,14.00
2018-12-31T10:58:37.026Z,13.17
2018-12-31T11:01:07.470Z,17.60
2018-12-31T11:03:38.309Z,12.97
2018-12-31T11:06:09.055Z,9.07
2018-12-31T11:08:39.521Z,8.37
2018-12-31T11:14:05.873Z,9.07
2018-12-31T11:16:36.362Z,11.53
2018-12-31T11:19:26.272Z,8.17
2018-12-31T11:21:57.073Z,8.97
2018-12-31T11:24:27.902Z,9.27
2018-12-31T11:29:47.704Z,8.00
2018-12-31T11:32:37.017Z,8.33
2018-12-31T11:35:07.905Z,7.80
2018-12-31T11:37:38.342Z,9.67
2018-12-31T11:40:28.013Z,9.20
2018-12-31T11:42:58.841Z,9.07
2018-12-31T11:45:48.268Z,8.30
2018-12-31T11:48:18.715Z,11.00
2018-12-31T11:51:08.077Z,8.37
2018-12-31T11:53:38.871Z,8.33
2018-12-31T11:56:09.707Z,10.47
2018-12-31T11:58:40.974Z,11.07
2018-12-31T12:01:11.409Z,9.23
2018-12-31T12:03:43.563Z,9.27
2018-12-31T12:06:14.041Z,8.57
2018-12-31T12:08:44.922Z,9.67
2018-12-31T12:11:16.326Z,10.67
2018-12-31T12:13:46.818Z,10.00
2018-12-31T12:16:17.254Z,9.20
2018-12-31T12:21:37.351Z,9.07
2018-12-31T12:24:07.794Z,9.33
2018-12-31T12:26:38.569Z,8.90
2018-12-31T12:29:09.028Z,8.73
2018-12-31T12:31:41.176Z,9.70
2018-12-31T12:34:31.415Z,8.27
2018-12-31T12:37:40.349Z,10.63
2018-12-31T12:40:30.301Z,8.30
2018-12-31T12:43:00.728Z,8.67
2018-12-31T12:45:50.688Z,8.87
2018-12-31T12:48:21.120Z,8.30
2018-12-31T12:50:51.940Z,9.87
2018-12-31T12:53:22.745Z,9.83
2018-12-31T12:55:53.179Z,9.27
2018-12-31T12:58:43.134Z,7.77
2018-12-31T13:01:33.034Z,7.30
2018-12-31T13:04:25.744Z,8.67
2018-12-31T13:07:15.950Z,8.10
2018-12-31T13:10:06.469Z,8.43
2018-12-31T13:12:36.905Z,6.83
2018-12-31T13:15:07.492Z,9.87
2018-12-31T13:17:57.442Z,10.57
2018-12-31T13:20:47.748Z,9.47
2018-12-31T13:23:18.589Z,11.63
2018-12-31T13:25:49.034Z,11.97
2018-12-31T13:28:39.000Z,13.43
2018-12-31T13:31:09.836Z,12.10
2018-12-31T13:33:42.304Z,11.53
2018-12-31T13:36:32.259Z,12.93
2018-12-31T13:42:11.929Z,11.33
2018-12-31T13:44:43.110Z,13.40
2018-12-31T13:47:13.564Z,16.00
2018-12-31T13:53:19.541Z,13.77
2018-12-31T13:55:49.987Z,11.90
2018-12-31T13:58:39.952Z,12.57
2018-12-31T14:01:29.857Z,12.40
2018-12-31T14:04:00.666Z,13.33
2018-12-31T14:06:31.507Z,13.87
2018-12-31T14:09:02.276Z,14.17
2018-12-31T14:11:33.288Z,14.10
2018-12-31T14:16:54.451Z,13.07
2018-12-31T14:19:25.558Z,13.33
2018-12-31T14:21:56.330Z,14.10
2018-12-31T14:24:46.286Z,14.40
2018-12-31T14:27:16.739Z,14.93
2018-12-31T14:29:47.183Z,15.07
2018-12-31T14:32:37.628Z,13.80
2018-12-31T14:35:09.896Z,15.97
2018-12-31T14:37:59.887Z,12.80
2018-12-31T14:40:50.144Z,13.40
2018-12-31T14:43:40.091Z,15.67
2018-12-31T14:46:30.009Z,18.33
2018-12-31T14:49:00.831Z,14.20
2018-12-31T14:51:31.284Z,16.77
2018-12-31T14:54:21.248Z,15.90
2018-12-31T14:56:52.078Z,14.67
2018-12-31T14:59:43.775Z,16.87
2018-12-31T15:02:14.534Z,15.83
2018-12-31T15:05:23.601Z,15.70
2018-12-31T15:07:54.053Z,14.47
2018-12-31T15:10:44.017Z,14.90
2018-12-31T15:13:33.931Z,14.83
2018-12-31T15:16:23.922Z,15.10
2018-12-31T15:19:14.213Z,12.83
2018-12-31T15:21:44.713Z,13.70
2018-12-31T15:24:15.167Z,14.60
2018-12-31T15:26:45.615Z,13.77
2018-12-31T15:29:17.827Z,13.20
2018-12-31T15:31:50.317Z,15.83
2018-12-31T15:34:42.598Z,16.57
2018-12-31T15:37:14.755Z,14.37
2018-12-31T15:39:45.204Z,17.03
2018-12-31T15:42:36.862Z,16.13
2018-12-31T15:45:26.787Z,17.27
2018-12-31T15:48:16.823Z,16.90
2018-12-31T15:50:47.645Z,16.60
2018-12-31T15:53:18.394Z,15.10
2018-12-31T15:56:10.026Z,16.00
2018-12-31T15:58:59.987Z,22.13
2018-12-31T16:04:20.296Z,19.53
2018-12-31T16:07:10.215Z,16.43
2018-12-31T16:10:00.177Z,18.60
2018-12-31T16:12:50.098Z,16.97
2018-12-31T16:15:40.061Z,18.83
2018-12-31T16:18:10.546Z,19.70
2018-12-31T16:21:02.202Z,23.10
2018-12-31T16:23:34.364Z,20.80
2018-12-31T16:26:24.320Z,17.60
2018-12-31T16:28:54.943Z,16.80
2018-12-31T16:31:25.387Z,19.90
2018-12-31T16:34:15.338Z,27.13
2018-12-31T16:36:46.201Z,33.37
2018-12-31T16:39:16.655Z,24.00
2018-12-31T16:44:42.388Z,18.07
2018-12-31T16:50:28.199Z,19.03
2018-12-31T16:52:58.697Z,22.57
2018-12-31T16:55:48.608Z,16.70
2018-12-31T16:58:38.567Z,20.70
2018-12-31T17:01:28.491Z,16.23
2018-12-31T17:03:58.991Z,23.43
2018-12-31T17:09:18.960Z,20.93
2018-12-31T17:12:09.013Z,19.00
2018-12-31T17:14:58.978Z,18.83
2018-12-31T17:17:29.428Z,18.57
2018-12-31T17:19:59.900Z,20.87
2018-12-31T17:22:30.715Z,21.30
2018-12-31T17:25:01.160Z,20.43
2018-12-31T17:27:51.118Z,21.07
2018-12-31T17:30:40.519Z,21.33
2018-12-31T17:33:11.015Z,19.63
2018-12-31T17:36:00.938Z,20.43
2018-12-31T17:38:31.828Z,19.70
2018-12-31T17:41:02.569Z,20.63
2018-12-31T17:43:52.850Z,23.73
2018-12-31T17:46:23.305Z,21.53
2018-12-31T17:49:14.973Z,20.40
2018-12-31T17:51:45.423Z,20.93
2018-12-31T17:54:15.873Z,21.63
2018-12-31T17:57:07.530Z,21.47
2018-12-31T17:59:37.979Z,17.83
2018-12-31T18:02:28.417Z,18.23
2018-12-31T18:05:17.834Z,19.67
2018-12-31T18:07:48.681Z,22.73
2018-12-31T18:13:33.494Z,20.53
2018-12-31T18:16:25.107Z,17.80
2018-12-31T18:18:55.599Z,23.03
2018-12-31T18:21:45.554Z,20.13
2018-12-31T18:24:17.750Z,23.53
2018-12-31T18:26:50.388Z,21.93
2018-12-31T18:29:22.603Z,25.50
2018-12-31T18:31:53.235Z,20.20
2018-12-31T18:34:24.058Z,21.90
2018-12-31T18:36:54.557Z,21.43
2018-12-31T18:39:25.004Z,21.00
2018-12-31T18:41:55.455Z,25.13
2018-12-31T18:44:26.070Z,22.80
2018-12-31T18:46:56.518Z,21.97
2018-12-31T18:49:27.353Z,21.67
2018-12-31T18:51:57.850Z,25.43
2018-12-31T18:57:39.167Z,24.73
2018-12-31T19:00:30.782Z,20.70
2018-12-31T19:03:03.346Z,26.53
2018-12-31T19:05:33.800Z,34.23
2018-12-31T19:08:04.345Z,23.77
2018-12-31T19:10:35.159Z,25.23
2018-12-31T19:13:05.930Z,29.17
2018-12-31T19:15:55.893Z,23.50
2018-12-31T19:18:26.337Z,28.83
2018-12-31T19:20:56.787Z,26.93
2018-12-31T19:23:27.675Z,27.77
2018-12-31T19:25:58.114Z,29.40
2018-12-31T19:28:28.557Z,25.07
2018-12-31T19:30:59.071Z,28.23
2018-12-31T19:33:29.835Z,28.77
2018-12-31T19:36:00.292Z,26.40
2018-12-31T19:38:50.247Z,34.00
2018-12-31T19:41:40.166Z,31.17
2018-12-31T19:44:30.131Z,29.40
2018-12-31T19:47:20.047Z,26.00
2018-12-31T19:49:50.549Z,24.53
2018-12-31T19:52:21.334Z,33.60
2018-12-31T19:54:51.779Z,27.83
2018-12-31T19:57:22.271Z,29.20
2018-12-31T19:59:54.444Z,36.60
2018-12-31T20:02:46.107Z,32.83
2018-12-31T20:05:16.556Z,32.23
2018-12-31T20:08:06.943Z,28.63
2018-12-31T20:10:37.801Z,29.87
2018-12-31T20:13:08.252Z,30.13
2018-12-31T20:15:38.759Z,31.07
2018-12-31T20:18:09.209Z,35.23
2018-12-31T20:20:40.033Z,38.00
2018-12-31T20:23:10.534Z,37.67
2018-12-31T20:26:00.480Z,39.70
2018-12-31T20:28:30.982Z,34.63
2018-12-31T20:31:20.900Z,35.67
2018-12-31T20:37:06.771Z,33.57
2018-12-31T20:39:37.623Z,40.57
2018-12-31T20:42:09.020Z,38.23
2018-12-31T20:44:39.855Z,39.17
2018-12-31T20:47:10.309Z,40.50
2018-12-31T20:49:40.768Z,41.77
2018-12-31T20:52:31.100Z,35.37
2018-12-31T20:55:01.939Z,40.00
2018-12-31T20:57:32.443Z,36.20
2018-12-31T21:00:22.359Z,38.47
2018-12-31T21:03:12.325Z,39.50
2018-12-31T21:06:02.248Z,41.17
2018-12-31T21:08:33.445Z,40.03
2018-12-31T21:11:03.889Z,36.87
2018-12-31T21:13:34.336Z,40.50
2018-12-31T21:16:05.618Z,34.83
2018-12-31T21:21:52.662Z,33.93
2018-12-31T21:24:23.816Z,33.97
2018-12-31T21:26:54.434Z,31.70
2018-12-31T21:29:24.889Z,27.53
2018-12-31T21:31:55.367Z,30.70
2018-12-31T21:34:25.818Z,29.87
2018-12-31T21:37:15.788Z,27.17
2018-12-31T21:39:58.964Z,33.63
2018-12-31T21:42:44.085Z,27.83
2018-12-31T21:45:22.240Z,30.30
2018-12-31T21:48:12.199Z,29.70
2018-12-31T21:50:43.066Z,32.80
2018-12-31T21:53:13.518Z,29.00
2018-12-31T21:55:43.993Z,27.87
2018-12-31T21:58:34.296Z,27.93
2018-12-31T22:01:04.792Z,29.50
2018-12-31T22:03:35.249Z,27.70
2018-12-31T22:06:26.923Z,27.27
2018-12-31T22:08:57.375Z,29.20
2018-12-31T22:11:47.315Z,27.80
2018-12-31T22:14:17.764Z,27.33
2018-12-31T22:16:48.506Z,26.30
2018-12-31T22:19:19.303Z,26.10
2018-12-31T22:21:49.749Z,25.30
2018-12-31T22:24:20.206Z,26.93
2018-12-31T22:26:52.788Z,24.00
2018-12-31T22:29:23.506Z,23.63
2018-12-31T22:31:54.359Z,26.20
2018-12-31T22:34:46.006Z,20.30
2018-12-31T22:37:16.571Z,23.70
2018-12-31T22:39:47.345Z,21.43
2018-12-31T22:42:39.367Z,24.60
2018-12-31T22:45:09.871Z,23.23
2018-12-31T22:47:42.066Z,23.93
2018-12-31T22:50:34.071Z,22.90
2018-12-31T22:53:04.531Z,30.40
2018-12-31T22:55:34.982Z,26.63
2018-12-31T22:58:05.690Z,24.60
2018-12-31T23:06:43.400Z,109.90
2018-12-31T23:09:15.903Z,84.57
2018-12-31T23:11:46.369Z,42.30
2018-12-31T23:14:16.837Z,144.27
2018-12-31T23:16:50.771Z,75.50
2018-12-31T23:19:21.227Z,82.00
2018-12-31T23:22:13.209Z,93.90
2018-12-31T23:24:43.747Z,306.43
2018-12-31T23:27:14.280Z,220.97
2018-12-31T23:29:45.503Z,78.03
2018-12-31T23:32:15.975Z,66.10
2018-12-31T23:38:02.825Z,73.07
2018-12-31T23:40:33.690Z,50.77
2018-12-31T23:43:06.537Z,53.83
2018-12-31T23:45:55.796Z,53.27
2018-12-31T23:48:26.674Z,53.17
2018-12-31T23:50:57.170Z,45.33
2018-12-31T23:53:27.626Z,37.67
2018-12-31T23:55:58.476Z,35.53
2018-12-31T23:58:47.935Z,33.77
